Valtellina — ICKF — position and weather

sailwx.info

Track history (hours):
 
Tides and Currents Weather Stations Pressure Air Temp Water Temp Dewpoint Dewpoint Depression Visibility Wind Speed Wind Dir Waves Ship Positions

Valtellina

Last reported at 2014-Oct-28 01:32 UTC. Time now 2014-Oct-31 22:20 UTC.
Position N 39°05' E 009°41'.

Length 184 m; draft 10.1 m.

Type: Ship. MMSI: 247243900.

Date/timePositionNaut miles runAvg speedWind from/ knotsBaromVisibWave heightAir tempDewpointWater temp
2014-Oct-28 01:32N 39°05' E 009°41'1510.7
2014-Oct-28 00:07N 39°01' E 009°22'713.1
2014-Oct-27 23:33N 39°03' E 009°13'9 8.4
2014-Oct-27 22:32N 39°06' E 009°03'0 0.0
2014-Oct-27 21:32N 39°06' E 009°03'1 0.7
2014-Oct-27 20:33N 39°05' E 009°02'0 0.0
2014-Oct-27 19:33N 39°05' E 009°02'0 0.0
2014-Oct-27 18:33N 39°05' E 009°02'0 0.0
2014-Oct-27 17:33N 39°05' E 009°02'0 0.0
2014-Oct-27 16:33N 39°05' E 009°02'0 0.0
2014-Oct-27 15:33N 39°05' E 009°02'0 0.0
2014-Oct-27 14:33N 39°05' E 009°02'0 0.0
2014-Oct-27 13:33N 39°05' E 009°02'0 0.0
2014-Oct-27 12:33N 39°05' E 009°02'0 0.0
2014-Oct-27 11:33N 39°05' E 009°02'0 0.0
2014-Oct-27 10:33N 39°05' E 009°02'0 0.0
2014-Oct-27 09:33N 39°05' E 009°02'0 0.0
2014-Oct-27 08:33N 39°05' E 009°02'0 0.0
2014-Oct-27 07:33N 39°05' E 009°02'0 0.0
2014-Oct-27 06:30N 39°05' E 009°02'0 0.0
2014-Oct-27 05:33N 39°05' E 009°02'0 0.0
2014-Oct-27 04:33N 39°05' E 009°02'0 0.0
2014-Oct-27 03:33N 39°05' E 009°02'0 0.0
2014-Oct-27 02:33N 39°05' E 009°02'0 0.0
2014-Oct-27 01:33N 39°05' E 009°02'0 0.0
2014-Oct-27 00:33N 39°05' E 009°02'0 0.0
2014-Oct-26 23:33N 39°05' E 009°02'0 0.2
2014-Oct-26 22:33N 39°05' E 009°02'2 2.3
2014-Oct-26 21:32N 39°04' E 009°04'0 0.0
2014-Oct-26 20:29N 39°04' E 009°04'0 0.0
2014-Oct-26 19:32N 39°04' E 009°04'0 0.1
2014-Oct-26 18:32N 39°04' E 009°04'0 0.0
2014-Oct-26 17:32N 39°04' E 009°04'0 0.1
2014-Oct-26 16:32N 39°04' E 009°05'0 0.1
2014-Oct-26 15:32N 39°04' E 009°05'0 0.1
2014-Oct-26 14:32N 39°04' E 009°05'4 4.3
2014-Oct-26 13:33N 39°02' E 009°09'8 8.5
2014-Oct-26 12:33N 38°57' E 009°18'9 8.8
2014-Oct-26 11:33N 38°52' E 009°28'6 6.2
2014-Oct-26 10:33N 38°49' E 009°34'2 0.7
2014-Oct-26 07:27N 38°49' E 009°37'  
Track history (hours):
 
Tides and Currents Weather Stations Pressure Air Temp Water Temp Dewpoint Dewpoint Depression Visibility Wind Speed Wind Dir Waves Ship Positions

Valtellina

Last reported at 2014-Oct-28 01:32 UTC. Time now 2014-Oct-31 22:20 UTC.
Position N 39°05' E 009°41'.

Length 184 m; draft 10.1 m.

Type: Ship. MMSI: 247243900.

Date/timePositionNaut miles runAvg speedWind from/ knotsBaromVisibWave heightAir tempDewpointWater temp
2014-Oct-28 01:32N 39°05' E 009°41'1510.7
2014-Oct-28 00:07N 39°01' E 009°22'713.1
2014-Oct-27 23:33N 39°03' E 009°13'9 8.4
2014-Oct-27 22:32N 39°06' E 009°03'0 0.0
2014-Oct-27 21:32N 39°06' E 009°03'1 0.7
2014-Oct-27 20:33N 39°05' E 009°02'0 0.0
2014-Oct-27 19:33N 39°05' E 009°02'0 0.0
2014-Oct-27 18:33N 39°05' E 009°02'0 0.0
2014-Oct-27 17:33N 39°05' E 009°02'0 0.0
2014-Oct-27 16:33N 39°05' E 009°02'0 0.0
2014-Oct-27 15:33N 39°05' E 009°02'0 0.0
2014-Oct-27 14:33N 39°05' E 009°02'0 0.0
2014-Oct-27 13:33N 39°05' E 009°02'0 0.0
2014-Oct-27 12:33N 39°05' E 009°02'0 0.0
2014-Oct-27 11:33N 39°05' E 009°02'0 0.0
2014-Oct-27 10:33N 39°05' E 009°02'0 0.0
2014-Oct-27 09:33N 39°05' E 009°02'0 0.0
2014-Oct-27 08:33N 39°05' E 009°02'0 0.0
2014-Oct-27 07:33N 39°05' E 009°02'0 0.0
2014-Oct-27 06:30N 39°05' E 009°02'0 0.0
2014-Oct-27 05:33N 39°05' E 009°02'0 0.0
2014-Oct-27 04:33N 39°05' E 009°02'0 0.0
2014-Oct-27 03:33N 39°05' E 009°02'0 0.0
2014-Oct-27 02:33N 39°05' E 009°02'0 0.0
2014-Oct-27 01:33N 39°05' E 009°02'0 0.0
2014-Oct-27 00:33N 39°05' E 009°02'0 0.0
2014-Oct-26 23:33N 39°05' E 009°02'0 0.2
2014-Oct-26 22:33N 39°05' E 009°02'2 2.3
2014-Oct-26 21:32N 39°04' E 009°04'0 0.0
2014-Oct-26 20:29N 39°04' E 009°04'0 0.0
2014-Oct-26 19:32N 39°04' E 009°04'0 0.1
2014-Oct-26 18:32N 39°04' E 009°04'0 0.0
2014-Oct-26 17:32N 39°04' E 009°04'0 0.1
2014-Oct-26 16:32N 39°04' E 009°05'0 0.1
2014-Oct-26 15:32N 39°04' E 009°05'0 0.1
2014-Oct-26 14:32N 39°04' E 009°05'4 4.3
2014-Oct-26 13:33N 39°02' E 009°09'8 8.5
2014-Oct-26 12:33N 38°57' E 009°18'9 8.8
2014-Oct-26 11:33N 38°52' E 009°28'6 6.2
2014-Oct-26 10:33N 38°49' E 009°34'2 0.7
2014-Oct-26 07:27N 38°49' E 009°37'  

Dump ship's entire track history